Time;durP1;ratioP1;P1;durP2;ratioP2;P2;SDS_P1;SDS_P2;PMS_P1;PMS_P2;Temp;Humidity;BMP_temperature;BMP_pressure;BME280_temperature;BME280_humidity;BME280_pressure;Samples;Min_cycle;Max_cycle;Signal;HPM_P1;HPM_P2
2023/02/15 00:04:08;;;;;;;;;;;;;;;2.03;100.00;102826.84;10562209;28;20378;-65
2023/02/15 00:09:10;;;;;;;;;;;;;;;2.07;100.00;102833.81;10581827;28;19985;-65
2023/02/15 00:14:15;;;;;;;;;;;;;;;1.78;100.00;102829.19;10564180;28;19924;-65
2023/02/15 00:19:17;;;;;;;;;;;;;;;2.00;100.00;102825.13;10573846;28;20002;-65
2023/02/15 00:24:20;;;;;;;;;;;;;;;2.08;100.00;102824.34;10555070;28;20268;-65
2023/02/15 00:29:22;;;;;;;;;;;;;;;2.09;100.00;102831.25;10546514;28;19928;-65
2023/02/15 00:34:25;;;;;;;;;;;;;;;2.07;100.00;102820.88;10584028;28;19924;-65
2023/02/15 00:39:28;;;;;;;;;;;;;;;2.12;100.00;102823.50;10571411;28;20294;-65
2023/02/15 00:44:31;;;;;;;;;;;;;;;2.10;100.00;102825.22;10589807;28;19977;-65
2023/02/15 00:49:33;;;;;;;;;;;;;;;1.95;100.00;102816.47;10586024;28;19946;-65
2023/02/15 00:54:35;;;;;;;;;;;;;;;1.79;100.00;102814.53;10589431;28;19924;-65
2023/02/15 00:59:37;;;;;;;;;;;;;;;1.85;100.00;102802.56;10588849;28;19924;-65
2023/02/15 01:04:39;;;;;;;;;;;;;;;1.65;100.00;102788.56;10567537;28;20427;-65
2023/02/15 01:09:42;;;;;;;;;;;;;;;1.97;100.00;102795.81;10588062;28;20391;-66
2023/02/15 01:14:44;;;;;;;;;;;;;;;1.79;100.00;102789.56;10587999;28;19923;-65
2023/02/15 01:19:46;;;;;;;;;;;;;;;2.00;100.00;102793.22;10555930;28;19924;-65
2023/02/15 01:24:49;;;;;;;;;;;;;;;2.00;100.00;102785.47;10554289;28;19931;-65
2023/02/15 01:29:51;;;;;;;;;;;;;;;2.05;100.00;102788.97;10567139;28;19976;-65
2023/02/15 01:34:53;;;;;;;;;;;;;;;1.76;100.00;102768.00;10587206;28;20301;-65
2023/02/15 01:39:55;;;;;;;;;;;;;;;1.71;100.00;102773.13;10585884;28;19977;-65
2023/02/15 01:44:58;;;;;;;;;;;;;;;2.03;100.00;102765.72;10584724;28;19924;-65
2023/02/15 01:50:12;;;;;;;;;;;;;;;2.12;100.00;102774.41;10587032;28;19924;-65
2023/02/15 01:55:14;;;;;;;;;;;;;;;1.92;100.00;102761.31;10569093;28;19923;-66
2023/02/15 02:00:17;;;;;;;;;;;;;;;1.67;100.00;102761.03;10566410;28;19931;-65
2023/02/15 02:05:19;;;;;;;;;;;;;;;1.77;100.00;102762.00;10585946;28;19924;-65
2023/02/15 02:10:22;;;;;;;;;;;;;;;1.83;100.00;102757.78;10586210;28;19934;-65
2023/02/15 02:15:42;;;;;;;;;;;;;;;1.56;100.00;102757.47;10565561;28;19924;-65
2023/02/15 02:20:53;;;;;;;;;;;;;;;1.61;100.00;102751.50;10567950;28;20010;-65
2023/02/15 02:26:07;;;;;;;;;;;;;;;1.38;100.00;102753.81;10566066;28;19939;-65
2023/02/15 02:31:28;;;;;;;;;;;;;;;1.47;100.00;102746.19;10585378;28;19923;-65
2023/02/15 02:36:49;;;;;;;;;;;;;;;1.59;100.00;102736.84;10584685;28;19971;-65
2023/02/15 02:41:57;;;;;;;;;;;;;;;1.34;100.00;102725.38;10582480;28;19977;-65
2023/02/15 02:47:03;;;;;;;;;;;;;;;1.37;100.00;102723.69;10584264;28;19924;-65
2023/02/15 02:52:07;;;;;;;;;;;;;;;1.36;100.00;102727.13;10565038;28;19927;-65
2023/02/15 02:57:09;;;;;;;;;;;;;;;1.45;100.00;102714.31;10564282;28;20431;-65
2023/02/15 03:02:13;;;;;;;;;;;;;;;1.39;100.00;102708.22;10583197;28;20329;-65
2023/02/15 03:07:21;;;;;;;;;;;;;;;1.13;100.00;102695.00;10582862;28;19931;-65
2023/02/15 03:12:24;;;;;;;;;;;;;;;1.23;100.00;102694.28;10581030;28;20298;-65
2023/02/15 03:17:27;;;;;;;;;;;;;;;0.85;100.00;102687.78;10564324;28;19923;-65
2023/02/15 03:22:31;;;;;;;;;;;;;;;0.97;100.00;102686.22;10562909;28;20378;-65
2023/02/15 03:27:36;;;;;;;;;;;;;;;0.98;100.00;102693.97;10583351;28;19923;-65
2023/02/15 03:32:38;;;;;;;;;;;;;;;0.76;100.00;102689.34;10565164;28;19977;-65
2023/02/15 03:37:46;;;;;;;;;;;;;;;0.79;100.00;102679.97;10581608;28;20082;-65
2023/02/15 03:42:49;;;;;;;;;;;;;;;0.79;100.00;102672.25;10582415;28;19947;-65
2023/02/15 03:47:51;;;;;;;;;;;;;;;0.83;100.00;102668.00;10564798;28;19923;-65
2023/02/15 03:52:54;;;;;;;;;;;;;;;0.75;100.00;102670.44;10561953;28;19989;-65
2023/02/15 04:03:23;;;;;;;;;;;;;;;0.77;100.00;102658.44;10544903;28;19924;-65
2023/02/15 04:10:51;;;;;;;;;;;;;;;1.19;100.00;102656.38;10549124;28;19924;-65
2023/02/15 04:13:47;;;;;;;;;;;;;;;0.87;100.00;102649.13;10545933;28;19928;-65
2023/02/15 04:29:31;;;;;;;;;;;;;;;1.01;100.00;102659.59;10547622;28;20295;-65
2023/02/15 04:34:34;;;;;;;;;;;;;;;1.03;100.00;102652.78;10546973;28;19924;-65
2023/02/15 04:39:36;;;;;;;;;;;;;;;0.83;100.00;102655.09;10529305;28;20005;-65
2023/02/15 04:44:38;;;;;;;;;;;;;;;0.78;100.00;102654.16;10547707;28;19928;-65
2023/02/15 04:49:40;;;;;;;;;;;;;;;0.82;100.00;102651.63;10545866;28;19924;-65
2023/02/15 04:54:43;;;;;;;;;;;;;;;1.02;100.00;102651.88;10546195;28;19946;-65
2023/02/15 04:59:45;;;;;;;;;;;;;;;0.68;100.00;102648.88;10546722;28;19973;-65
2023/02/15 05:04:47;;;;;;;;;;;;;;;0.68;100.00;102643.72;10544706;28;19981;-65
2023/02/15 05:09:50;;;;;;;;;;;;;;;0.86;100.00;102639.66;10546559;28;19924;-65
2023/02/15 05:14:52;;;;;;;;;;;;;;;0.52;100.00;102634.94;10487120;22;19952;-63
2023/02/15 05:19:54;;;;;;;;;;;;;;;0.63;100.00;102634.19;10461470;28;19925;-63
2023/02/15 05:30:17;;;;;;;;;;;;;;;0.42;100.00;102625.34;10461727;28;19932;-64
2023/02/15 05:35:19;;;;;;;;;;;;;;;0.59;100.00;102623.00;10462290;28;19925;-63
2023/02/15 05:40:21;;;;;;;;;;;;;;;0.61;100.00;102613.56;10461478;28;19978;-64
2023/02/15 05:45:24;;;;;;;;;;;;;;;0.57;100.00;102611.78;10461380;28;19990;-63
2023/02/15 05:50:26;;;;;;;;;;;;;;;0.47;100.00;102612.50;10461574;28;19975;-63
2023/02/15 05:55:28;;;;;;;;;;;;;;;0.63;100.00;102614.44;10460900;28;19930;-63
2023/02/15 06:00:31;;;;;;;;;;;;;;;0.78;100.00;102612.91;10460027;28;20273;-63
2023/02/15 06:05:33;;;;;;;;;;;;;;;0.68;100.00;102614.50;10443113;28;19928;-63
2023/02/15 06:10:35;;;;;;;;;;;;;;;0.58;100.00;102628.13;10460797;28;19925;-63
2023/02/15 06:15:38;;;;;;;;;;;;;;;0.58;100.00;102623.81;10458955;28;19925;-63
2023/02/15 06:20:40;;;;;;;;;;;;;;;0.53;100.00;102633.22;10442340;28;19932;-63
2023/02/15 06:25:42;;;;;;;;;;;;;;;0.51;100.00;102640.06;10459881;28;19925;-63
2023/02/15 06:30:44;;;;;;;;;;;;;;;0.36;100.00;102625.25;10441426;28;19932;-63
2023/02/15 06:35:46;;;;;;;;;;;;;;;0.38;100.00;102626.13;10459991;28;19931;-63
2023/02/15 06:40:49;;;;;;;;;;;;;;;0.65;100.00;102629.94;10441516;28;19924;-63
2023/02/15 06:45:51;;;;;;;;;;;;;;;0.34;100.00;102637.25;10440622;28;19924;-63
2023/02/15 06:50:53;;;;;;;;;;;;;;;0.39;100.00;102626.97;10459322;28;19928;-63
2023/02/15 06:56:06;;;;;;;;;;;;;;;0.35;100.00;102619.22;10458287;28;19925;-63
2023/02/15 07:01:09;;;;;;;;;;;;;;;0.49;100.00;102611.69;10440912;28;20258;-63
2023/02/15 07:06:11;;;;;;;;;;;;;;;0.53;100.00;102617.75;10457562;28;19925;-63
2023/02/15 07:16:34;;;;;;;;;;;;;;;0.78;100.00;102607.75;10456168;28;19924;-63
2023/02/15 07:21:36;;;;;;;;;;;;;;;0.96;100.00;102613.13;10458343;28;19978;-63
2023/02/15 07:26:39;;;;;;;;;;;;;;;1.14;100.00;102603.84;10457339;28;19925;-63
2023/02/15 07:31:43;;;;;;;;;;;;;;;1.35;100.00;102603.22;10457205;28;19948;-63
2023/02/15 07:36:45;;;;;;;;;;;;;;;1.44;100.00;102595.56;10454815;28;19929;-63
2023/02/15 07:41:47;;;;;;;;;;;;;;;1.79;100.00;102595.88;10457004;28;20015;-63
2023/02/15 07:46:50;;;;;;;;;;;;;;;2.09;100.00;102572.84;10456954;28;19924;-63
2023/02/15 07:51:52;;;;;;;;;;;;;;;2.38;100.00;102578.16;10457266;28;19951;-63
2023/02/15 07:56:54;;;;;;;;;;;;;;;2.44;100.00;102575.63;10456366;28;19925;-63
2023/02/15 08:01:57;;;;;;;;;;;;;;;3.08;100.00;102571.56;10457867;28;19932;-63
2023/02/15 08:06:59;;;;;;;;;;;;;;;3.25;100.00;102562.06;10455429;28;20441;-63
2023/02/15 08:12:02;;;;;;;;;;;;;;;3.43;100.00;102550.00;10451408;28;19925;-63
2023/02/15 08:17:04;;;;;;;;;;;;;;;3.59;100.00;102548.28;10451944;28;19928;-63
2023/02/15 08:22:07;;;;;;;;;;;;;;;3.83;100.00;102545.69;10456683;28;19980;-63
2023/02/15 08:27:10;;;;;;;;;;;;;;;4.36;100.00;102542.97;10456092;28;19925;-63
2023/02/15 08:32:13;;;;;;;;;;;;;;;4.72;98.00;102531.56;10439024;28;20050;-63
2023/02/15 08:37:16;;;;;;;;;;;;;;;5.02;96.05;102527.91;10454994;28;19960;-63
2023/02/15 08:42:20;;;;;;;;;;;;;;;5.06;92.98;102513.22;10452294;28;19971;-63
2023/02/15 08:47:22;;;;;;;;;;;;;;;5.28;90.52;102524.31;10455490;28;19924;-63
2023/02/15 08:52:24;;;;;;;;;;;;;;;5.92;91.31;102512.44;10458814;28;19929;-63
2023/02/15 08:57:27;;;;;;;;;;;;;;;6.59;89.15;102519.50;10461746;28;20425;-63
2023/02/15 09:02:29;;;;;;;;;;;;;;;7.65;85.86;102510.06;10461705;28;20371;-63
2023/02/15 09:07:31;;;;;;;;;;;;;;;8.32;82.02;102510.53;10460750;28;20323;-63
2023/02/15 09:12:34;;;;;;;;;;;;;;;8.85;80.01;102509.44;10459690;28;20390;-63
2023/02/15 09:17:36;;;;;;;;;;;;;;;9.54;75.53;102499.91;10402814;28;20544;-63
2023/02/15 09:22:38;;;;;;;;;;;;;;;10.52;72.74;102508.56;10361246;28;19933;-64
2023/02/15 09:27:41;;;;;;;;;;;;;;;9.93;70.98;102504.13;10396908;28;20008;-64
2023/02/15 09:32:44;;;;;;;;;;;;;;;9.62;71.88;102502.34;10418416;28;19929;-64
2023/02/15 09:37:46;;;;;;;;;;;;;;;9.58;71.60;102506.78;10419441;28;19971;-64
2023/02/15 09:42:48;;;;;;;;;;;;;;;8.91;72.60;102517.13;10420983;28;19932;-64
2023/02/15 09:47:53;;;;;;;;;;;;;;;10.12;71.30;102499.22;10419281;28;20368;-65
2023/02/15 09:53:14;;;;;;;;;;;;;;;10.25;67.73;102500.59;10420509;28;19960;-64
2023/02/15 09:58:23;;;;;;;;;;;;;;;10.97;68.12;102492.34;10418805;28;19925;-64
2023/02/15 10:03:34;;;;;;;;;;;;;;;11.71;67.09;102485.47;10418241;28;19925;-64
2023/02/15 10:08:55;;;;;;;;;;;;;;;11.53;65.12;102488.75;10418162;28;20384;-64
2023/02/15 10:13:59;;;;;;;;;;;;;;;13.72;64.19;102491.69;10418148;28;20288;-64
2023/02/15 10:19:01;;;;;;;;;;;;;;;13.90;61.49;102487.38;10455709;28;19925;-64
2023/02/15 10:24:03;;;;;;;;;;;;;;;12.89;60.29;102499.50;10459489;28;19929;-64
2023/02/15 10:29:07;;;;;;;;;;;;;;;14.16;60.38;102493.25;10459728;28;19974;-64
2023/02/15 10:34:16;;;;;;;;;;;;;;;14.06;60.22;102491.97;10456438;28;20335;-65
2023/02/15 10:39:28;;;;;;;;;;;;;;;15.51;58.30;102485.88;10459855;28;19974;-62
2023/02/15 10:44:49;;;;;;;;;;;;;;;15.31;57.51;102486.03;10459038;28;19924;-62
2023/02/15 10:50:20;;;;;;;;;;;;;;;17.04;54.49;102481.13;10459592;28;19925;-62
2023/02/15 10:55:29;;;;;;;;;;;;;;;15.30;54.54;102479.03;10441734;28;19925;-62
2023/02/15 11:00:34;;;;;;;;;;;;;;;16.54;52.65;102482.19;10458422;28;19928;-63
2023/02/15 11:05:39;;;;;;;;;;;;;;;17.70;51.28;102481.66;10458348;28;20364;-63
2023/02/15 11:10:47;;;;;;;;;;;;;;;17.73;51.72;102477.94;10457989;28;20295;-63
2023/02/15 11:15:57;;;;;;;;;;;;;;;18.01;47.12;102477.13;10456300;28;19991;-63
2023/02/15 11:21:13;;;;;;;;;;;;;;;18.01;49.48;102472.69;10456941;28;19931;-67
2023/02/15 11:26:17;;;;;;;;;;;;;;;19.14;51.70;102469.91;10456406;28;20288;-67
2023/02/15 11:31:22;;;;;;;;;;;;;;;18.90;48.23;102475.91;10456564;28;19924;-67
2023/02/15 11:36:25;;;;;;;;;;;;;;;19.49;45.10;102457.72;10456035;28;20290;-67
2023/02/15 11:41:28;;;;;;;;;;;;;;;20.82;44.90;102458.09;10455328;28;19929;-67
2023/02/15 11:46:31;;;;;;;;;;;;;;;19.71;47.57;102450.06;10453863;28;20408;-68
2023/02/15 11:51:33;;;;;;;;;;;;;;;19.60;46.74;102437.53;10454308;28;20020;-68
2023/02/15 11:56:35;;;;;;;;;;;;;;;20.71;44.57;102432.25;10456128;28;19932;-68
2023/02/15 12:01:39;;;;;;;;;;;;;;;19.18;46.08;102426.25;10457234;28;19945;-68
2023/02/15 12:06:43;;;;;;;;;;;;;;;17.77;46.63;102418.53;10454094;28;19924;-68
2023/02/15 12:11:45;;;;;;;;;;;;;;;18.02;46.97;102409.91;10455183;28;20375;-68
2023/02/15 12:16:51;;;;;;;;;;;;;;;19.07;46.19;102397.81;10445369;28;19929;-67
2023/02/15 12:21:53;;;;;;;;;;;;;;;17.71;49.63;102380.03;10414952;28;20360;-68
2023/02/15 12:26:56;;;;;;;;;;;;;;;18.79;48.00;102388.16;10422108;28;19925;-68
2023/02/15 12:31:58;;;;;;;;;;;;;;;18.67;48.38;102374.75;10422994;28;19983;-67
2023/02/15 12:37:02;;;;;;;;;;;;;;;21.25;44.62;102361.59;10422827;28;20047;-68
2023/02/15 12:42:08;;;;;;;;;;;;;;;21.05;43.37;102371.16;10421578;28;19936;-67
2023/02/15 12:47:16;;;;;;;;;;;;;;;21.88;41.48;102365.47;10421510;28;19925;-67
2023/02/15 12:52:19;;;;;;;;;;;;;;;23.75;40.41;102363.09;10422858;28;19925;-68
2023/02/15 12:57:22;;;;;;;;;;;;;;;20.99;43.08;102359.16;10404583;28;20440;-67
2023/02/15 13:02:27;;;;;;;;;;;;;;;20.20;43.12;102356.19;10422596;28;19936;-67
2023/02/15 13:07:30;;;;;;;;;;;;;;;20.06;41.96;102356.38;10422238;28;19975;-68
2023/02/15 13:12:33;;;;;;;;;;;;;;;20.38;40.17;102352.16;10422075;28;19975;-67
2023/02/15 13:17:35;;;;;;;;;;;;;;;19.57;41.51;102345.63;10419968;28;19925;-67
2023/02/15 13:22:41;;;;;;;;;;;;;;;20.55;41.50;102337.59;10421769;28;19979;-67
2023/02/15 13:27:44;;;;;;;;;;;;;;;19.65;42.57;102337.97;10420858;28;19954;-67
2023/02/15 13:32:47;;;;;;;;;;;;;;;20.89;39.64;102324.41;10419766;28;20029;-68
2023/02/15 13:38:22;;;;;;;;;;;;;;;21.34;38.62;102315.59;10423828;28;19979;-67
2023/02/15 13:43:24;;;;;;;;;;;;;;;18.46;44.08;102305.47;10427785;28;19932;-67
2023/02/15 13:48:31;;;;;;;;;;;;;;;19.61;42.59;102298.44;10462049;28;19975;-69
2023/02/15 13:53:58;;;;;;;;;;;;;;;20.28;42.18;102278.53;10459747;28;19980;-68
2023/02/15 13:59:13;;;;;;;;;;;;;;;18.81;43.73;102275.69;10461041;28;20318;-68
2023/02/15 14:04:15;;;;;;;;;;;;;;;17.81;45.70;102280.50;10459479;28;20040;-69
2023/02/15 14:09:26;;;;;;;;;;;;;;;16.69;49.33;102280.34;10460573;28;20380;-68
2023/02/15 14:14:40;;;;;;;;;;;;;;;15.97;51.07;102288.03;10460597;28;19932;-68
2023/02/15 14:19:49;;;;;;;;;;;;;;;15.57;51.52;102289.38;10460098;28;19975;-68
2023/02/15 14:24:52;;;;;;;;;;;;;;;15.58;51.57;102285.78;10459375;28;19979;-68
2023/02/15 14:29:57;;;;;;;;;;;;;;;15.38;52.36;102286.88;10460404;28;19929;-68
2023/02/15 14:35:00;;;;;;;;;;;;;;;15.30;53.22;102291.69;10459018;28;19925;-68
2023/02/15 14:46:00;;;;;;;;;;;;;;;14.89;54.04;102281.56;10458740;28;20287;-68
2023/02/15 14:51:03;;;;;;;;;;;;;;;14.52;56.81;102294.81;10459414;28;19924;-68
2023/02/15 14:56:13;;;;;;;;;;;;;;;14.78;56.02;102296.16;10459286;28;20282;-68
2023/02/15 15:01:15;;;;;;;;;;;;;;;14.68;55.81;102305.47;10458541;28;20364;-68
2023/02/15 15:06:29;;;;;;;;;;;;;;;14.26;59.25;102311.91;10457494;28;19925;-68
2023/02/15 15:11:40;;;;;;;;;;;;;;;14.12;58.12;102317.84;10458173;28;19931;-68
2023/02/15 15:16:47;;;;;;;;;;;;;;;14.22;56.59;102313.84;10457696;28;20011;-68
2023/02/15 15:21:49;;;;;;;;;;;;;;;13.93;58.95;102309.97;10458283;28;19924;-68
2023/02/15 15:27:11;;;;;;;;;;;;;;;13.40;60.28;102310.66;10457623;28;20334;-67
2023/02/15 15:32:15;;;;;;;;;;;;;;;13.08;62.62;102302.41;10456634;28;21327;-68
2023/02/15 15:37:33;;;;;;;;;;;;;;;12.61;63.79;102293.03;10456684;28;19972;-68
2023/02/15 15:42:46;;;;;;;;;;;;;;;12.34;65.68;102301.16;10456444;28;19979;-68
2023/02/15 15:47:54;;;;;;;;;;;;;;;11.92;67.07;102290.56;10455734;28;20372;-68
2023/02/15 15:53:14;;;;;;;;;;;;;;;11.59;68.54;102293.56;10457390;28;19932;-67
2023/02/15 15:58:17;;;;;;;;;;;;;;;11.41;70.33;102279.38;10454714;28;20335;-68
2023/02/15 16:03:23;;;;;;;;;;;;;;;11.18;71.46;102269.72;10455255;28;19925;-67
2023/02/15 16:08:28;;;;;;;;;;;;;;;11.02;72.60;102286.00;10457194;28;19924;-67
2023/02/15 16:13:30;;;;;;;;;;;;;;;10.62;73.22;102281.28;10456990;28;19924;-68
2023/02/15 16:18:32;;;;;;;;;;;;;;;10.53;73.89;102277.22;10455054;28;19924;-68
2023/02/15 16:23:34;;;;;;;;;;;;;;;9.95;76.84;102275.56;10438750;28;19975;-67
2023/02/15 16:28:38;;;;;;;;;;;;;;;9.67;76.42;102278.16;10456115;28;19995;-68
2023/02/15 16:33:41;;;;;;;;;;;;;;;9.53;77.69;102282.94;10455153;28;19925;-67
2023/02/15 16:38:43;;;;;;;;;;;;;;;9.59;77.89;102280.13;10455794;28;19932;-68
2023/02/15 16:43:46;;;;;;;;;;;;;;;9.09;78.69;102281.56;10456465;28;19979;-67
2023/02/15 16:48:51;;;;;;;;;;;;;;;9.09;81.29;102288.50;10454957;28;19929;-68
2023/02/15 16:53:53;;;;;;;;;;;;;;;8.85;81.37;102283.03;10455432;28;19925;-68
2023/02/15 16:58:57;;;;;;;;;;;;;;;8.71;82.27;102279.97;10490107;28;20329;-68
2023/02/15 17:04:13;;;;;;;;;;;;;;;8.54;82.53;102285.63;10479427;28;19931;-68
2023/02/15 17:09:18;;;;;;;;;;;;;;;8.39;83.50;102289.41;10480169;28;19925;-68
2023/02/15 17:14:21;;;;;;;;;;;;;;;8.23;85.46;102299.34;10462968;28;20007;-68
2023/02/15 17:19:25;;;;;;;;;;;;;;;8.32;84.90;102311.31;10457986;28;20410;-67
2023/02/15 17:24:31;;;;;;;;;;;;;;;7.99;86.23;102316.44;10486840;28;19924;-67
2023/02/15 17:29:35;;;;;;;;;;;;;;;7.96;86.06;102306.91;10497057;22;19925;-75
2023/02/15 17:34:40;;;;;;;;;;;;;;;7.75;87.22;102308.25;10460277;28;19978;-76
2023/02/15 17:39:43;;;;;;;;;;;;;;;7.80;87.06;102297.69;10460986;28;19925;-75
2023/02/15 17:44:45;;;;;;;;;;;;;;;7.61;88.03;102305.91;10461640;28;20268;-75
2023/02/15 17:49:48;;;;;;;;;;;;;;;7.50;87.63;102300.09;10461484;28;19951;-75
2023/02/15 18:16:20;;;;;;;;;;;;;;;7.34;88.94;102294.31;10460904;28;19925;-75
2023/02/15 18:21:23;;;;;;;;;;;;;;;7.20;90.33;102312.81;10440788;28;19928;-75
2023/02/15 18:26:25;;;;;;;;;;;;;;;6.74;90.59;102320.59;10443016;28;19975;-75
2023/02/15 18:31:28;;;;;;;;;;;;;;;6.74;90.79;102323.19;10442136;28;19974;-75
2023/02/15 18:36:34;;;;;;;;;;;;;;;6.80;90.15;102325.72;10441922;28;19972;-74
2023/02/15 18:41:36;;;;;;;;;;;;;;;6.81;90.53;102325.69;10459437;28;20399;-74
2023/02/15 18:46:38;;;;;;;;;;;;;;;6.64;90.54;102325.97;10459845;28;19927;-74
2023/02/15 18:51:42;;;;;;;;;;;;;;;6.77;91.95;102330.97;10457964;28;19978;-74
2023/02/15 18:56:51;;;;;;;;;;;;;;;6.64;92.93;102325.09;10458103;28;19978;-74
2023/02/15 19:01:55;;;;;;;;;;;;;;;6.22;94.23;102320.56;10459354;28;19924;-74
2023/02/15 19:06:58;;;;;;;;;;;;;;;6.47;93.52;102333.19;10456823;28;20426;-74
2023/02/15 19:12:00;;;;;;;;;;;;;;;6.32;94.93;102331.66;10458330;28;19931;-74
2023/02/15 19:17:02;;;;;;;;;;;;;;;6.49;93.91;102327.06;10458633;28;19925;-74
2023/02/15 19:22:05;;;;;;;;;;;;;;;6.55;94.66;102339.13;10457354;28;19935;-76
2023/02/15 19:27:10;;;;;;;;;;;;;;;6.50;93.52;102333.97;10453978;28;19979;-75
2023/02/15 19:32:13;;;;;;;;;;;;;;;6.92;90.27;102333.31;10431449;28;19978;-76
2023/02/15 19:37:35;;;;;;;;;;;;;;;7.17;88.33;102340.69;10457993;28;19975;-76
2023/02/15 19:42:38;;;;;;;;;;;;;;;6.71;91.47;102329.34;10438870;28;19928;-76
2023/02/15 19:47:40;;;;;;;;;;;;;;;7.20;87.85;102341.47;10423800;28;19979;-76
2023/02/15 19:52:43;;;;;;;;;;;;;;;6.82;91.39;102332.59;10457538;28;20353;-75
2023/02/15 19:57:45;;;;;;;;;;;;;;;6.98;90.58;102337.56;10438553;28;19928;-76
2023/02/15 20:02:47;;;;;;;;;;;;;;;7.33;87.36;102336.91;10456860;28;19936;-75
2023/02/15 20:07:50;;;;;;;;;;;;;;;7.41;87.75;102326.31;10456691;28;19925;-75
2023/02/15 20:12:56;;;;;;;;;;;;;;;7.59;87.37;102327.72;10454465;28;20402;-75
2023/02/15 20:17:58;;;;;;;;;;;;;;;7.63;85.03;102322.41;10457152;28;19924;-75
2023/02/15 20:23:00;;;;;;;;;;;;;;;6.92;89.01;102320.28;10456424;28;19925;-76
2023/02/15 20:28:03;;;;;;;;;;;;;;;7.13;87.21;102325.97;10454597;28;19925;-76
2023/02/15 20:33:06;;;;;;;;;;;;;;;7.02;87.40;102324.44;10456770;28;19929;-75
2023/02/15 20:38:25;;;;;;;;;;;;;;;7.28;88.11;102323.13;10439262;28;19978;-75
2023/02/15 20:43:27;;;;;;;;;;;;;;;7.50;86.76;102322.66;10423420;28;19931;-75
2023/02/15 20:48:29;;;;;;;;;;;;;;;7.76;84.67;102314.31;10463789;28;20276;-75
2023/02/15 20:53:32;;;;;;;;;;;;;;;7.58;84.62;102319.03;10496118;28;19925;-75
2023/02/15 20:58:35;;;;;;;;;;;;;;;7.63;84.58;102321.53;10445389;28;20281;-75
2023/02/15 21:03:37;;;;;;;;;;;;;;;7.76;84.00;102319.53;10446341;28;20001;-75
2023/02/15 21:08:40;;;;;;;;;;;;;;;7.64;84.89;102325.88;10444618;28;20412;-75
2023/02/15 21:13:42;;;;;;;;;;;;;;;7.37;85.77;102311.66;10445825;28;19928;-75
2023/02/15 21:18:44;;;;;;;;;;;;;;;7.81;82.67;102317.69;10445766;28;19932;-75
2023/02/15 21:23:46;;;;;;;;;;;;;;;7.88;81.92;102316.66;10460546;28;20413;-75
2023/02/15 21:28:49;;;;;;;;;;;;;;;7.17;84.56;102318.09;10460893;28;19925;-75
2023/02/15 21:33:51;;;;;;;;;;;;;;;6.91;87.67;102308.16;10445113;28;19933;-75
2023/02/15 21:38:53;;;;;;;;;;;;;;;7.42;85.79;102308.06;10444839;28;19931;-75
2023/02/15 21:49:16;;;;;;;;;;;;;;;7.70;83.09;102311.84;10461557;28;19979;-75
2023/02/15 21:54:19;;;;;;;;;;;;;;;7.69;82.62;102302.31;10442435;28;19924;-74
2023/02/15 21:59:21;;;;;;;;;;;;;;;7.80;83.37;102301.19;10459462;28;19928;-75
2023/02/15 22:04:27;;;;;;;;;;;;;;;7.74;82.93;102316.09;10442525;28;19924;-75
2023/02/15 22:09:29;;;;;;;;;;;;;;;7.87;82.85;102308.84;10460825;28;19928;-75
2023/02/15 22:14:36;;;;;;;;;;;;;;;7.80;83.21;102301.19;10461199;28;19934;-75
2023/02/15 22:19:38;;;;;;;;;;;;;;;7.61;85.54;102299.84;10441947;28;20368;-75
2023/02/15 22:24:40;;;;;;;;;;;;;;;7.59;84.66;102312.06;10459018;28;19925;-75
2023/02/15 22:29:43;;;;;;;;;;;;;;;7.65;85.01;102311.94;10458444;28;19925;-75
2023/02/15 22:34:45;;;;;;;;;;;;;;;7.59;85.83;102314.69;10460294;28;19928;-75
2023/02/15 22:39:47;;;;;;;;;;;;;;;7.34;86.70;102302.13;10458564;28;19924;-75
2023/02/15 22:44:50;;;;;;;;;;;;;;;7.39;87.46;102309.88;10459845;28;19932;-75
2023/02/15 22:49:53;;;;;;;;;;;;;;;7.26;87.84;102309.22;10441931;28;19925;-75
2023/02/15 22:54:55;;;;;;;;;;;;;;;7.33;87.48;102312.56;10458246;28;19929;-75
2023/02/15 22:59:59;;;;;;;;;;;;;;;7.37;86.49;102299.47;10458617;28;19936;-75
2023/02/15 23:05:01;;;;;;;;;;;;;;;7.24;86.61;102295.38;10458142;28;19971;-75
2023/02/15 23:10:04;;;;;;;;;;;;;;;7.28;87.48;102289.25;10457628;28;20015;-75
2023/02/15 23:15:09;;;;;;;;;;;;;;;7.23;86.33;102301.50;10457008;28;19982;-74
2023/02/15 23:20:14;;;;;;;;;;;;;;;7.28;85.96;102294.47;10456269;28;20342;-74
2023/02/15 23:25:20;;;;;;;;;;;;;;;7.20;85.75;102302.41;10439639;28;19925;-74
2023/02/15 23:30:23;;;;;;;;;;;;;;;7.25;85.67;102304.94;10456671;28;19931;-75
2023/02/15 23:35:25;;;;;;;;;;;;;;;7.27;86.08;102297.94;10456355;28;20414;-75
2023/02/15 23:45:49;;;;;;;;;;;;;;;7.17;85.26;102301.63;10456420;28;19924;-75
2023/02/15 23:50:51;;;;;;;;;;;;;;;7.10;85.66;102297.41;10457696;28;19925;-75
2023/02/15 23:55:53;;;;;;;;;;;;;;;7.09;85.69;102291.31;10439247;28;19954;-75
